DRK401 VNKT-VQPR
Flight info
| Callsign | DRK401 |
|---|---|
| Flight time | 0h 59m |
| Altitude | 35000 |
| Route | IGRIS1D KIMTI G348 SUBSU DCT TAKTI DCT PRO |
| Aircraft | A319/M-SDE3FGHIRWY/LB1 |
Departure
| Time | 2025-12-31 05:39 |
|---|---|
| Airport | Tribhuvan International Airport (VNKT) |
Arrival
| Time | 2025-12-31 06:38 |
|---|---|
| Airport | Paro International Airport (VQPR) |
| Time | Latitude | Longitude | Altitude | Speed | Heading |
|---|---|---|---|---|---|
| 2025-12-31 05:10 | 27.69879 | 85.35782 | 4398 ft | 0 kts | 292° |
| 2025-12-31 05:11 | 27.69873 | 85.35794 | 4398 ft | 0 kts | 291° |
| 2025-12-31 05:26 | 27.69865 | 85.35817 | 4398 ft | 3 kts | 291° |
| 2025-12-31 05:27 | 27.69852 | 85.35859 | 4397 ft | 3 kts | 270° |
| 2025-12-31 05:27 | 27.69868 | 85.35893 | 4397 ft | 2 kts | 204° |
| 2025-12-31 05:28 | 27.69879 | 85.35899 | 4397 ft | 0 kts | 201° |
| 2025-12-31 05:30 | 27.69830 | 85.35875 | 4397 ft | 12 kts | 203° |
| 2025-12-31 05:30 | 27.69746 | 85.35834 | 4397 ft | 14 kts | 203° |
| 2025-12-31 05:31 | 27.69560 | 85.35752 | 4398 ft | 15 kts | 201° |
| 2025-12-31 05:31 | 27.69337 | 85.35647 | 4394 ft | 19 kts | 202° |
| 2025-12-31 05:32 | 27.69147 | 85.35561 | 4389 ft | 4 kts | 202° |
| 2025-12-31 05:32 | 27.69145 | 85.35560 | 4389 ft | 0 kts | 202° |
| 2025-12-31 05:33 | 27.69124 | 85.35552 | 4389 ft | 5 kts | 194° |
| 2025-12-31 05:33 | 27.69097 | 85.35554 | 4389 ft | 0 kts | 165° |
| 2025-12-31 05:34 | 27.69026 | 85.35623 | 4391 ft | 15 kts | 176° |
| 2025-12-31 05:34 | 27.68766 | 85.35508 | 4390 ft | 22 kts | 202° |
| 2025-12-31 05:35 | 27.68497 | 85.35386 | 4396 ft | 17 kts | 206° |
| 2025-12-31 05:35 | 27.68431 | 85.35355 | 4397 ft | 7 kts | 22° |
| 2025-12-31 05:36 | 27.68438 | 85.35358 | 4397 ft | 0 kts | 22° |
| 2025-12-31 05:36 | 27.68507 | 85.35390 | 4396 ft | 38 kts | 22° |
| 2025-12-31 05:37 | 27.69896 | 85.36019 | 4417 ft | 162 kts | 21° |
| 2025-12-31 05:37 | 27.70929 | 85.36493 | 5026 ft | 159 kts | 21° |
| 2025-12-31 05:38 | 27.74050 | 85.40587 | 6663 ft | 225 kts | 91° |
| 2025-12-31 05:39 | 27.73651 | 85.44287 | 7587 ft | 253 kts | 114° |
| 2025-12-31 05:39 | 27.71107 | 85.46934 | 9240 ft | 261 kts | 158° |
| 2025-12-31 05:40 | 27.67492 | 85.48692 | 10138 ft | 305 kts | 152° |
| 2025-12-31 05:40 | 27.64179 | 85.51997 | 11305 ft | 331 kts | 126° |
| 2025-12-31 05:41 | 27.62321 | 85.56826 | 12800 ft | 341 kts | 107° |
| 2025-12-31 05:41 | 27.61644 | 85.59376 | 13489 ft | 345 kts | 107° |
| 2025-12-31 05:41 | 27.60242 | 85.64650 | 14804 ft | 353 kts | 107° |
| 2025-12-31 05:42 | 27.57619 | 85.72486 | 16565 ft | 365 kts | 117° |
| 2025-12-31 05:42 | 27.56479 | 85.75063 | 17106 ft | 368 kts | 117° |
| 2025-12-31 05:43 | 27.53000 | 85.82928 | 18623 ft | 378 kts | 116° |
| 2025-12-31 05:44 | 27.51335 | 85.88568 | 19529 ft | 386 kts | 101° |
| 2025-12-31 05:44 | 27.50897 | 85.94647 | 20387 ft | 392 kts | 92° |
| 2025-12-31 05:45 | 27.50673 | 86.00828 | 21184 ft | 397 kts | 92° |
| 2025-12-31 05:45 | 27.50553 | 86.03929 | 21562 ft | 400 kts | 93° |
| 2025-12-31 05:45 | 27.50306 | 86.10204 | 22829 ft | 405 kts | 92° |
| 2025-12-31 05:46 | 27.49939 | 86.19842 | 24497 ft | 419 kts | 92° |
| 2025-12-31 05:47 | 27.49644 | 86.26500 | 25451 ft | 429 kts | 97° |
| 2025-12-31 05:48 | 27.45167 | 86.50243 | 28697 ft | 452 kts | 103° |
| 2025-12-31 05:51 | 27.39078 | 86.81662 | 33041 ft | 458 kts | 103° |
| 2025-12-31 05:52 | 27.34323 | 87.05929 | 35008 ft | 444 kts | 103° |
| 2025-12-31 05:55 | 27.24145 | 87.33138 | 35008 ft | 440 kts | 122° |
| 2025-12-31 05:56 | 27.12846 | 87.53597 | 35009 ft | 440 kts | 122° |
| 2025-12-31 05:59 | 26.98271 | 87.79824 | 35009 ft | 440 kts | 122° |
| 2025-12-31 06:00 | 26.86912 | 88.00175 | 35004 ft | 440 kts | 122° |
| 2025-12-31 06:03 | 26.72362 | 88.26302 | 33702 ft | 440 kts | 118° |
| 2025-12-31 06:04 | 26.71567 | 88.49480 | 31957 ft | 443 kts | 66° |
| 2025-12-31 06:06 | 26.88032 | 88.69241 | 28820 ft | 429 kts | 50° |
| 2025-12-31 06:08 | 27.00724 | 88.91221 | 25066 ft | 414 kts | 60° |
| 2025-12-31 06:09 | 27.03499 | 88.96873 | 24030 ft | 411 kts | 62° |
| 2025-12-31 06:09 | 27.06228 | 89.02462 | 22993 ft | 408 kts | 61° |
| 2025-12-31 06:10 | 27.08973 | 89.07991 | 22270 ft | 397 kts | 61° |
| 2025-12-31 06:10 | 27.11614 | 89.13273 | 21933 ft | 377 kts | 61° |
| 2025-12-31 06:11 | 27.15321 | 89.20718 | 21046 ft | 361 kts | 61° |
| 2025-12-31 06:11 | 27.16574 | 89.23145 | 20470 ft | 356 kts | 56° |
| 2025-12-31 06:12 | 27.20029 | 89.26984 | 19373 ft | 347 kts | 33° |
| 2025-12-31 06:12 | 27.24376 | 89.29050 | 18307 ft | 338 kts | 11° |
| 2025-12-31 06:13 | 27.28996 | 89.29979 | 17124 ft | 335 kts | 9° |
| 2025-12-31 06:13 | 27.31280 | 89.30428 | 16601 ft | 331 kts | 9° |
| 2025-12-31 06:14 | 27.39479 | 89.27416 | 14583 ft | 317 kts | 326° |
| 2025-12-31 06:15 | 27.43413 | 89.25743 | 13888 ft | 287 kts | 3° |
| 2025-12-31 06:15 | 27.45273 | 89.26205 | 13825 ft | 264 kts | 24° |
| 2025-12-31 06:15 | 27.47738 | 89.28795 | 13646 ft | 230 kts | 64° |
| 2025-12-31 06:16 | 27.48239 | 89.32085 | 13462 ft | 203 kts | 99° |
| 2025-12-31 06:17 | 27.46331 | 89.35807 | 12971 ft | 174 kts | 143° |
| 2025-12-31 06:17 | 27.45347 | 89.36547 | 12791 ft | 167 kts | 144° |
| 2025-12-31 06:17 | 27.43991 | 89.38529 | 12444 ft | 161 kts | 112° |
| 2025-12-31 06:18 | 27.43427 | 89.42573 | 11925 ft | 199 kts | 75° |
| 2025-12-31 06:19 | 27.45351 | 89.44983 | 11896 ft | 233 kts | 26° |
| 2025-12-31 06:19 | 27.48500 | 89.44933 | 11607 ft | 232 kts | 328° |
| 2025-12-31 06:20 | 27.49887 | 89.41933 | 11107 ft | 225 kts | 262° |
| 2025-12-31 06:20 | 27.48131 | 89.39651 | 11574 ft | 220 kts | 198° |
| 2025-12-31 06:21 | 27.44463 | 89.38664 | 10401 ft | 295 kts | 161° |
| 2025-12-31 06:21 | 27.42805 | 89.39750 | 10889 ft | 255 kts | 146° |
| 2025-12-31 06:21 | 27.40371 | 89.41858 | 11670 ft | 193 kts | 140° |
| 2025-12-31 06:22 | 27.37324 | 89.45210 | 10830 ft | 197 kts | 134° |
| 2025-12-31 06:23 | 27.35310 | 89.47274 | 10225 ft | 208 kts | 148° |
| 2025-12-31 06:23 | 27.32504 | 89.48272 | 12633 ft | 185 kts | 178° |
| 2025-12-31 06:24 | 27.29772 | 89.47761 | 13792 ft | 228 kts | 203° |
| 2025-12-31 06:24 | 27.27284 | 89.45807 | 15398 ft | 236 kts | 227° |
| 2025-12-31 06:24 | 27.26236 | 89.44327 | 15784 ft | 255 kts | 236° |
| 2025-12-31 06:25 | 27.23375 | 89.41363 | 15879 ft | 320 kts | 195° |
| 2025-12-31 06:25 | 27.18540 | 89.40818 | 15869 ft | 376 kts | 190° |
| 2025-12-31 06:26 | 27.10770 | 89.37365 | 15867 ft | 438 kts | 225° |
| 2025-12-31 06:27 | 27.08208 | 89.31079 | 15574 ft | 446 kts | 265° |
| 2025-12-31 06:27 | 27.09721 | 89.24787 | 15140 ft | 416 kts | 307° |
| 2025-12-31 06:27 | 27.11879 | 89.22680 | 15049 ft | 412 kts | 331° |
| 2025-12-31 06:28 | 27.17156 | 89.22094 | 15080 ft | 374 kts | 19° |
| 2025-12-31 06:28 | 27.21278 | 89.25155 | 15080 ft | 344 kts | 45° |
| 2025-12-31 06:29 | 27.24885 | 89.28328 | 15078 ft | 319 kts | 28° |
| 2025-12-31 06:29 | 27.28968 | 89.29969 | 14834 ft | 304 kts | 9° |
| 2025-12-31 06:30 | 27.34665 | 89.30465 | 14493 ft | 251 kts | 345° |
| 2025-12-31 06:31 | 27.37567 | 89.28849 | 14205 ft | 218 kts | 325° |
| 2025-12-31 06:31 | 27.39973 | 89.27054 | 13771 ft | 184 kts | 325° |
| 2025-12-31 06:31 | 27.41003 | 89.26331 | 13762 ft | 173 kts | 332° |
| 2025-12-31 06:32 | 27.43298 | 89.25713 | 13748 ft | 157 kts | 360° |
| 2025-12-31 06:32 | 27.45373 | 89.26232 | 13756 ft | 153 kts | 24° |
| 2025-12-31 06:33 | 27.47095 | 89.27649 | 13397 ft | 164 kts | 47° |
| 2025-12-31 06:33 | 27.48051 | 89.29987 | 12462 ft | 167 kts | 79° |
| 2025-12-31 06:34 | 27.47650 | 89.33958 | 10683 ft | 184 kts | 122° |
| 2025-12-31 06:35 | 27.45830 | 89.35962 | 9622 ft | 181 kts | 136° |
| 2025-12-31 06:35 | 27.44919 | 89.36865 | 9273 ft | 171 kts | 130° |
| 2025-12-31 06:35 | 27.44026 | 89.39225 | 8568 ft | 160 kts | 102° |
| 2025-12-31 06:36 | 27.42839 | 89.41055 | 8047 ft | 139 kts | 146° |
| 2025-12-31 06:36 | 27.41140 | 89.41973 | 7368 ft | 134 kts | 154° |
| 2025-12-31 06:37 | 27.39938 | 89.42717 | 7337 ft | 71 kts | 150° |
| 2025-12-31 06:37 | 27.39447 | 89.42997 | 7336 ft | 17 kts | 213° |
| 2025-12-31 06:38 | 27.39704 | 89.42756 | 7334 ft | 19 kts | 330° |
| 2025-12-31 06:39 | 27.39949 | 89.42602 | 7333 ft | 21 kts | 331° |
| 2025-12-31 06:39 | 27.40077 | 89.42521 | 7333 ft | 22 kts | 329° |
| 2025-12-31 06:39 | 27.40346 | 89.42349 | 7334 ft | 23 kts | 330° |
| 2025-12-31 06:40 | 27.40556 | 89.42215 | 7334 ft | 18 kts | 330° |
| 2025-12-31 06:40 | 27.40593 | 89.42120 | 7333 ft | 1 kts | 240° |